Airfield :
LOGIN :

Register | Disclaimer

   EN    FR    IT 

 










Legend :    VFR   Marginal VFR   IFR   Intensive IFR   Very Intensive IFR
Visi :
Ceiling :
>= 8 km
>= 3000ft
5 to 8 km
1000 to 3000 ft
1500m to 5 km
500 to 1000 ft
800 to 1500m
200 to 500 ft
< 800m
< 200 ft
Symbols :   Thunderstorms  Fog  Heavy snow  Heavy precipitations  Wind > 20 kt
SIGMETs :     Misc.  Thunderstorms  Icing  Turbulence  Mountain Waves  Volcanic Ashes






- Airport Elevation : 46 ft
- IATA code : SNN


EINN - Shannon

CURRENT METAR :
  • 290700Z 21014KT 8000 -RA FEW012 BKN014 13/12 Q0999 TEMPO 3000 RA BKN009

EXPIRED METARs :
  • 290630Z 21014KT 8000 RA FEW011 BKN014 13/12 Q0999 TEMPO 3000 BKN009
  • 290600Z 21014KT 9000 FEW010 BKN013 13/12 Q0999 TEMPO 3000 BKN009
  • 290530Z 18010KT 8000 RA FEW010 BKN013 12/11 Q0999 TEMPO 3000 BKN009
  • 290500Z 18011KT 9000 RA SCT015 BKN020 11/11 Q0999 TEMPO 3000 BKN009

TAF TAF EINN
Valid from the 29 at 06:00 until the 30 at 06:00 UTC


290500Z 2906/3006 18015KT 9999 -RA BKN014
BECMG 2906/2908 22020G32KT
TEMPO 2906/2910 4000 RA BKN009
PROB30
TEMPO 2912/2915 4000 -RADZ BKN009
TEMPO 2915/3003 4000 -RADZ BKN009
PROB30
TEMPO 3001/3003 2000 BKN004
BECMG 3002/3004 28017G27KT
BECMG 3004/3006 28012KT BKN015



MET'MAP, your aeronautical weather chart ! - Copyright ORBIFLY December 2007 - Disclaimer

ORBIFLY MET'MAP TEAM :

Programming & Development : Alexandra Zaïnal
Concept & original design : Baudouin d'Aumeries
Assistance for programming : Marc-Olivier Méhu
Technical & hardware support : Manuel Goepfert

Contact : metmap@orbifly.com




SOURCES & CREDITS :

   NOAA